Time;durP1;ratioP1;P1;durP2;ratioP2;P2;SDS_P1;SDS_P2;PMS_P1;PMS_P2;Temp;Humidity;BMP_temperature;BMP_pressure;BME280_temperature;BME280_humidity;BME280_pressure;Samples;Min_cycle;Max_cycle;Signal;HPM_P1;HPM_P2
2023/06/03 00:00:20;;;;;;;0.60;0.60;;;15.00;94.20;;;;;;5053935;28;20174;-72
2023/06/03 00:02:47;;;;;;;2.07;1.97;;;14.80;94.30;;;;;;5053809;28;20166;-72
2023/06/03 00:05:17;;;;;;;1.60;1.40;;;14.80;94.70;;;;;;5053693;28;20425;-72
2023/06/03 00:07:43;;;;;;;3.43;2.20;;;14.90;94.50;;;;;;5053756;28;20785;-72
2023/06/03 00:10:09;;;;;;;3.07;1.70;;;14.90;94.50;;;;;;5053951;28;20403;-72
2023/06/03 00:12:34;;;;;;;1.47;1.37;;;14.80;94.70;;;;;;5053665;28;20182;-72
2023/06/03 00:15:00;;;;;;;1.63;1.53;;;14.70;94.90;;;;;;5053381;28;20483;-72
2023/06/03 00:17:27;;;;;;;1.83;1.70;;;14.70;94.90;;;;;;5053435;28;20164;-72
2023/06/03 00:19:54;;;;;;;1.20;0.93;;;14.80;95.00;;;;;;5053774;28;20166;-72
2023/06/03 00:22:21;;;;;;;2.17;1.90;;;14.80;94.90;;;;;;5053609;28;20881;-72
2023/06/03 00:24:48;;;;;;;2.30;2.10;;;14.80;95.20;;;;;;5053403;28;20427;-72
2023/06/03 00:27:14;;;;;;;3.23;2.37;;;14.70;95.20;;;;;;5053274;28;20404;-72
2023/06/03 00:29:39;;;;;;;0.97;0.90;;;14.60;95.30;;;;;;5053545;28;20453;-72
2023/06/03 00:32:05;;;;;;;1.10;1.10;;;14.50;95.60;;;;;;5053637;28;20401;-72
2023/06/03 00:34:31;;;;;;;6.13;1.23;;;14.50;96.20;;;;;;5053221;28;20210;-72
2023/06/03 00:36:57;;;;;;;1.87;1.73;;;14.50;95.60;;;;;;5053290;28;20405;-72
2023/06/03 00:39:22;;;;;;;2.60;2.40;;;14.50;95.70;;;;;;5053269;28;20166;-72
2023/06/03 00:41:48;;;;;;;2.87;2.10;;;14.40;95.70;;;;;;5053310;28;20182;-72
2023/06/03 00:44:14;;;;;;;0.60;0.60;;;14.30;96.00;;;;;;5053391;28;20646;-72
2023/06/03 00:46:41;;;;;;;1.40;1.27;;;14.30;96.50;;;;;;5053115;28;20581;-72
2023/06/03 00:49:07;;;;;;;0.60;0.60;;;14.20;96.60;;;;;;5053014;28;20530;-72
2023/06/03 00:51:35;;;;;;;1.60;1.60;;;14.20;96.50;;;;;;5053288;28;20404;-72
2023/06/03 00:54:01;;;;;;;1.70;1.60;;;14.10;96.90;;;;;;5053130;28;20193;-72
2023/06/03 00:56:29;;;;;;;1.23;1.10;;;14.00;97.20;;;;;;5053044;28;20488;-72
2023/06/03 00:58:55;;;;;;;2.00;1.67;;;14.00;97.10;;;;;;5053310;28;20404;-72
2023/06/03 01:01:21;;;;;;;3.00;2.70;;;14.00;97.20;;;;;;5053390;28;20411;-72
2023/06/03 01:03:47;;;;;;;2.77;1.80;;;14.00;97.20;;;;;;5057232;28;20275;-72
2023/06/03 01:06:34;;;;;;;2.83;1.10;;;13.90;97.60;;;;;;5056961;28;20435;-72
2023/06/03 01:09:06;;;;;;;1.60;0.80;;;13.80;97.70;;;;;;5057195;28;20407;-72
2023/06/03 01:12:03;;;;;;;1.57;1.47;;;13.70;98.00;;;;;;5057048;28;20494;-72
2023/06/03 01:14:40;;;;;;;2.63;1.50;;;13.70;97.80;;;;;;5056888;28;20464;-72
2023/06/03 01:17:12;;;;;;;1.00;0.87;;;13.80;97.70;;;;;;5057041;28;20911;-72
2023/06/03 01:19:48;;;;;;;1.97;1.87;;;13.70;97.80;;;;;;5057097;28;20433;-72
2023/06/03 01:22:20;;;;;;;1.43;1.33;;;13.60;98.20;;;;;;5057101;28;20405;-72
2023/06/03 01:24:50;;;;;;;1.17;1.07;;;13.50;98.50;;;;;;5056957;28;20514;-72
2023/06/03 01:27:20;;;;;;;1.43;0.90;;;13.40;98.40;;;;;;5057195;28;20422;-72
2023/06/03 01:29:46;;;;;;;3.40;2.10;;;13.50;98.20;;;;;;5056934;28;20804;-72
2023/06/03 01:32:16;;;;;;;2.90;1.93;;;13.50;98.30;;;;;;5056593;28;20507;-72
2023/06/03 01:34:43;;;;;;;0.80;0.80;;;13.40;98.20;;;;;;5057069;28;20778;-72
2023/06/03 01:37:10;;;;;;;2.50;1.20;;;13.30;98.10;;;;;;5056437;28;20396;-72
2023/06/03 01:39:39;;;;;;;0.80;0.80;;;13.40;98.50;;;;;;5056608;28;20810;-72
2023/06/03 01:42:07;;;;;;;0.87;0.60;;;13.30;98.60;;;;;;5056763;28;20438;-72
2023/06/03 01:44:32;;;;;;;0.50;0.50;;;13.30;98.60;;;;;;5056303;28;20824;-72
2023/06/03 01:46:58;;;;;;;1.97;1.87;;;13.20;98.80;;;;;;5056276;28;20411;-72
2023/06/03 01:49:24;;;;;;;1.53;1.43;;;13.10;99.20;;;;;;5056252;28;20252;-72
2023/06/03 01:51:49;;;;;;;1.03;1.03;;;13.10;99.50;;;;;;5056417;28;20196;-72
2023/06/03 01:54:18;;;;;;;1.93;1.73;;;13.10;99.30;;;;;;5056182;28;20200;-72
2023/06/03 01:56:43;;;;;;;3.93;1.53;;;13.10;99.30;;;;;;5056132;28;20165;-72
2023/06/03 01:59:09;;;;;;;1.83;1.73;;;13.10;99.30;;;;;;5056351;28;20411;-72
2023/06/03 02:01:36;;;;;;;1.57;1.47;;;13.10;99.40;;;;;;5056194;28;20564;-72
2023/06/03 02:04:02;;;;;;;1.33;1.03;;;13.10;99.20;;;;;;5056064;28;20182;-72
2023/06/03 02:06:28;;;;;;;1.70;1.60;;;13.10;98.90;;;;;;5055868;28;20428;-72
2023/06/03 02:08:53;;;;;;;0.90;0.90;;;13.10;99.00;;;;;;5055966;28;20919;-72
2023/06/03 02:11:19;;;;;;;1.80;0.90;;;13.00;98.80;;;;;;5056173;28;20657;-72
2023/06/03 02:13:45;;;;;;;2.00;1.13;;;12.90;98.90;;;;;;5055208;28;20194;-72
2023/06/03 02:16:11;;;;;;;5.40;2.00;;;12.90;98.80;;;;;;5055757;28;20180;-72
2023/06/03 02:18:37;;;;;;;0.73;0.73;;;12.90;98.90;;;;;;5054607;28;20638;-72
2023/06/03 02:21:03;;;;;;;1.80;1.70;;;12.80;98.60;;;;;;5055747;28;20439;-72
2023/06/03 02:23:28;;;;;;;2.90;1.43;;;12.80;98.70;;;;;;5055714;28;20430;-72
2023/06/03 02:25:54;;;;;;;1.40;1.30;;;12.80;98.50;;;;;;5054347;28;20434;-72
2023/06/03 02:28:22;;;;;;;1.60;1.50;;;12.80;98.20;;;;;;5055813;28;20184;-72
2023/06/03 02:30:48;;;;;;;1.30;1.30;;;12.90;98.50;;;;;;5055789;28;20169;-72
2023/06/03 02:33:14;;;;;;;1.60;1.00;;;12.80;99.90;;;;;;5055528;28;20496;-72
2023/06/03 02:35:40;;;;;;;1.70;0.97;;;12.90;98.70;;;;;;5055386;28;20551;-72
2023/06/03 02:38:05;;;;;;;0.60;0.60;;;12.80;99.10;;;;;;5055654;28;20247;-72
2023/06/03 02:40:31;;;;;;;2.73;1.03;;;12.70;99.00;;;;;;5055415;28;20174;-72
2023/06/03 02:42:56;;;;;;;13.33;1.80;;;12.80;99.00;;;;;;5056022;28;20241;-72
2023/06/03 02:45:22;;;;;;;2.00;1.90;;;12.70;98.70;;;;;;5055410;28;20188;-72
2023/06/03 02:47:48;;;;;;;2.60;1.50;;;12.70;98.60;;;;;;5055248;28;20192;-72
2023/06/03 02:50:14;;;;;;;1.50;1.40;;;12.70;98.80;;;;;;5055345;28;20583;-72
2023/06/03 02:52:40;;;;;;;2.77;2.60;;;12.80;98.90;;;;;;5055273;28;20173;-72
2023/06/03 02:55:07;;;;;;;1.00;0.90;;;12.80;98.70;;;;;;5055012;28;20455;-72
2023/06/03 02:57:33;;;;;;;2.27;1.70;;;12.80;98.80;;;;;;5054852;28;20491;-71
2023/06/03 02:59:58;;;;;;;2.37;2.17;;;12.80;98.90;;;;;;5054922;28;20830;-72
2023/06/03 03:02:25;;;;;;;1.67;1.67;;;12.70;98.90;;;;;;5054715;28;20162;-72
2023/06/03 03:04:51;;;;;;;2.00;1.90;;;12.70;99.10;;;;;;5054923;28;20201;-72
2023/06/03 03:07:17;;;;;;;1.00;1.00;;;12.70;99.00;;;;;;5054893;28;20405;-72
2023/06/03 03:09:43;;;;;;;13.33;1.40;;;12.60;99.20;;;;;;5055077;28;20260;-72
2023/06/03 03:12:09;;;;;;;1.57;1.47;;;12.60;99.30;;;;;;5055039;28;20495;-72
2023/06/03 03:14:34;;;;;;;1.40;1.27;;;12.70;98.80;;;;;;5053907;28;20449;-72
2023/06/03 03:17:00;;;;;;;2.80;1.97;;;12.70;98.60;;;;;;5053330;28;20410;-72
2023/06/03 03:19:26;;;;;;;1.90;1.80;;;12.70;98.90;;;;;;5054846;28;20249;-72
2023/06/03 03:21:51;;;;;;;1.57;1.47;;;12.80;98.90;;;;;;5053150;28;20165;-72
2023/06/03 03:24:17;;;;;;;0.50;0.50;;;12.80;98.50;;;;;;5053378;28;20204;-72
2023/06/03 03:26:43;;;;;;;1.27;1.00;;;12.90;98.30;;;;;;5054401;28;20173;-72
2023/06/03 03:29:08;;;;;;;1.13;1.00;;;12.80;98.80;;;;;;5054494;28;20288;-72
2023/06/03 03:31:34;;;;;;;1.07;1.07;;;12.70;98.80;;;;;;5054553;28;20320;-72
2023/06/03 03:34:02;;;;;;;1.97;1.47;;;12.70;99.10;;;;;;5054306;28;20684;-72
2023/06/03 03:36:28;;;;;;;0.90;0.50;;;12.60;99.30;;;;;;5054206;28;20197;-72
2023/06/03 03:39:03;;;;;;;1.60;1.50;;;12.60;99.40;;;;;;5054374;28;20406;-72
2023/06/03 03:41:32;;;;;;;2.33;2.00;;;12.60;99.30;;;;;;5054305;28;20407;-72
2023/06/03 03:43:58;;;;;;;8.00;1.73;;;12.70;99.20;;;;;;5054188;28;20424;-72
2023/06/03 03:46:24;;;;;;;3.33;3.13;;;12.80;99.50;;;;;;5053964;28;20465;-72
2023/06/03 03:48:50;;;;;;;2.10;1.40;;;12.70;99.40;;;;;;5054065;28;20431;-72
2023/06/03 03:51:15;;;;;;;0.77;0.77;;;12.70;99.60;;;;;;5054129;28;20163;-72
2023/06/03 03:53:47;;;;;;;2.27;2.17;;;12.60;99.60;;;;;;5053976;28;20453;-72
2023/06/03 03:56:20;;;;;;;2.93;2.23;;;12.50;99.90;;;;;;5054079;28;20198;-72
2023/06/03 03:58:49;;;;;;;1.10;0.77;;;12.60;99.90;;;;;;5054170;28;20482;-72
2023/06/03 04:01:18;;;;;;;2.00;1.87;;;12.60;99.60;;;;;;5054220;28;20926;-72
2023/06/03 04:03:55;;;;;;;2.83;2.63;;;12.60;99.50;;;;;;5053951;28;20424;-72
2023/06/03 04:06:36;;;;;;;1.00;1.00;;;12.70;98.90;;;;;;5053741;28;20415;-72
2023/06/03 04:09:04;;;;;;;6.23;1.33;;;12.70;98.70;;;;;;5054023;28;20393;-72
2023/06/03 04:11:38;;;;;;;1.33;1.23;;;12.80;99.20;;;;;;5053926;28;20407;-72
2023/06/03 04:14:08;;;;;;;2.90;2.67;;;12.80;99.30;;;;;;5053679;28;20455;-72
2023/06/03 04:16:42;;;;;;;1.93;1.83;;;12.80;99.20;;;;;;5053419;28;20458;-72
2023/06/03 04:19:14;;;;;;;10.93;1.80;;;12.80;99.60;;;;;;5053654;28;20403;-72
2023/06/03 04:21:40;;;;;;;1.60;1.50;;;13.00;99.70;;;;;;5053639;28;20452;-72
2023/06/03 04:24:06;;;;;;;0.63;0.63;;;13.00;99.30;;;;;;5053550;28;20428;-72
2023/06/03 04:26:32;;;;;;;2.27;2.10;;;13.00;99.40;;;;;;5053122;28;20185;-72
2023/06/03 04:28:57;;;;;;;3.60;3.13;;;13.10;99.90;;;;;;5053363;28;20416;-72
2023/06/03 04:31:23;;;;;;;1.57;1.40;;;13.40;99.90;;;;;;5053471;28;20404;-72
2023/06/03 04:33:49;;;;;;;2.20;1.30;;;13.90;98.40;;;;;;5053123;28;20191;-72
2023/06/03 04:36:14;;;;;;;3.20;2.73;;;14.60;97.40;;;;;;5051761;28;20164;-72
2023/06/03 04:38:41;;;;;;;4.37;2.50;;;;;;;;;;5051998;28;20170;-72
2023/06/03 04:41:10;;;;;;;5.20;1.90;;;15.70;94.70;;;;;;5052430;28;20159;-72
2023/06/03 04:43:38;;;;;;;2.50;2.33;;;16.00;94.20;;;;;;5053649;28;20450;-72
2023/06/03 04:46:06;;;;;;;1.77;1.67;;;16.10;93.90;;;;;;5053280;28;20409;-72
2023/06/03 04:48:33;;;;;;;2.10;2.00;;;16.20;94.10;;;;;;5053155;28;20920;-73
2023/06/03 04:51:01;;;;;;;1.63;1.53;;;16.10;94.10;;;;;;5053444;28;20435;-72
2023/06/03 04:53:27;;;;;;;1.10;1.10;;;16.20;94.40;;;;;;5053136;28;20427;-72
2023/06/03 04:55:52;;;;;;;1.50;1.40;;;16.30;93.50;;;;;;5052912;28;20999;-72
2023/06/03 04:58:18;;;;;;;3.07;2.50;;;16.50;93.40;;;;;;5053189;28;20532;-72
2023/06/03 05:00:45;;;;;;;1.70;1.60;;;16.60;93.70;;;;;;5053156;28;20524;-72
2023/06/03 05:03:11;;;;;;;1.20;1.10;;;17.00;99.20;;;;;;5053112;28;20897;-72
2023/06/03 05:05:46;;;;;;;0.97;0.97;;;17.30;93.30;;;;;;5053018;28;20878;-72
2023/06/03 05:08:12;;;;;;;2.10;1.23;;;18.00;92.70;;;;;;5053059;28;20397;-73
2023/06/03 05:10:38;;;;;;;1.97;1.80;;;18.70;91.20;;;;;;5053069;28;20403;-72
2023/06/03 05:13:08;;;;;;;2.10;1.20;;;19.30;94.20;;;;;;5052963;28;20488;-73
2023/06/03 05:15:34;;;;;;;1.80;1.70;;;19.10;88.30;;;;;;5052806;28;20198;-72
2023/06/03 05:18:01;;;;;;;0.87;0.87;;;19.30;88.20;;;;;;5051259;28;20935;-71
2023/06/03 05:20:28;;;;;;;1.43;1.37;;;19.40;88.30;;;;;;5051975;28;20408;-71
2023/06/03 05:22:53;;;;;;;1.37;0.80;;;19.40;86.00;;;;;;5052328;28;20867;-71
2023/06/03 05:25:19;;;;;;;1.93;1.27;;;19.20;85.20;;;;;;5050938;28;20467;-72
2023/06/03 05:27:45;;;;;;;1.30;1.17;;;19.10;85.30;;;;;;5051706;28;20170;-72
2023/06/03 05:30:11;;;;;;;1.30;1.30;;;19.00;84.60;;;;;;5052733;28;20960;-71
2023/06/03 05:32:40;;;;;;;1.23;1.13;;;18.90;84.00;;;;;;5052984;28;20223;-71
2023/06/03 05:35:06;;;;;;;1.23;1.13;;;18.90;85.60;;;;;;5052584;28;20448;-72
2023/06/03 05:37:31;;;;;;;1.23;1.13;;;18.90;85.80;;;;;;5052517;28;20410;-71
2023/06/03 05:39:57;;;;;;;1.27;1.17;;;19.00;87.80;;;;;;5052762;28;20466;-71
2023/06/03 05:42:22;;;;;;;1.37;1.30;;;19.10;86.80;;;;;;5052698;28;20169;-71
2023/06/03 05:44:48;;;;;;;1.20;1.10;;;19.20;84.00;;;;;;5051448;28;20220;-72
2023/06/03 05:47:14;;;;;;;1.60;1.50;;;19.20;84.60;;;;;;5051135;28;20173;-72
2023/06/03 05:49:39;;;;;;;2.00;1.43;;;19.30;86.10;;;;;;5055971;28;20204;-71
2023/06/03 05:52:05;;;;;;;0.90;0.80;;;19.30;86.30;;;;;;5055048;28;20291;-71
2023/06/03 05:54:31;;;;;;;1.30;1.20;;;19.30;86.20;;;;;;5054202;28;20252;-70
2023/06/03 05:56:58;;;;;;;2.10;1.73;;;19.20;86.80;;;;;;5055456;28;20295;-71
2023/06/03 05:59:24;;;;;;;0.80;0.63;;;19.20;88.30;;;;;;5056289;28;20162;-71
2023/06/03 06:01:51;;;;;;;1.00;0.80;;;19.40;88.80;;;;;;5053235;28;20400;-70
2023/06/03 06:04:18;;;;;;;1.30;1.20;;;19.50;87.20;;;;;;5040280;28;20968;-73
2023/06/03 06:06:44;;;;;;;1.43;1.40;;;19.70;86.70;;;;;;5042917;28;20798;-72
2023/06/03 06:09:10;;;;;;;2.87;1.30;;;20.10;87.20;;;;;;5055936;28;20413;-73
2023/06/03 06:11:36;;;;;;;1.50;1.40;;;21.10;85.60;;;;;;5043667;28;20440;-71
2023/06/03 06:14:02;;;;;;;1.60;1.50;;;22.70;81.50;;;;;;5035795;28;20195;-71
2023/06/03 06:16:27;;;;;;;2.10;1.20;;;24.70;75.40;;;;;;5035815;28;20167;-73
2023/06/03 06:18:53;;;;;;;1.73;1.60;;;26.60;69.10;;;;;;5034920;28;20253;-73
2023/06/03 06:21:18;;;;;;;1.93;1.70;;;28.40;61.70;;;;;;5035962;28;20171;-72
2023/06/03 06:23:44;;;;;;;1.40;1.30;;;29.80;55.70;;;;;;5035748;28;20191;-73
2023/06/03 06:26:14;;;;;;;1.13;1.03;;;30.90;52.40;;;;;;5035703;28;20205;-73
2023/06/03 06:28:40;;;;;;;1.27;1.17;;;32.00;49.30;;;;;;5035809;28;20797;-73
2023/06/03 06:31:06;;;;;;;2.60;2.30;;;32.90;45.30;;;;;;5035635;28;20406;-72
2023/06/03 06:33:35;;;;;;;1.60;1.00;;;33.70;42.90;;;;;;5035732;28;20421;-72
2023/06/03 06:36:17;;;;;;;1.50;1.07;;;34.40;42.80;;;;;;5035499;28;20206;-72
2023/06/03 06:38:43;;;;;;;3.43;1.80;;;35.00;40.50;;;;;;5035789;28;20437;-71
2023/06/03 06:41:12;;;;;;;1.60;1.50;;;35.50;38.90;;;;;;5035609;28;20870;-72
2023/06/03 06:43:39;;;;;;;1.60;1.50;;;35.50;38.40;;;;;;5035321;28;20197;-72
2023/06/03 06:46:05;;;;;;;1.33;1.20;;;35.30;38.90;;;;;;5035381;28;20398;-72
2023/06/03 06:48:34;;;;;;;1.27;1.17;;;34.80;38.60;;;;;;5035776;28;20406;-72
2023/06/03 06:51:00;;;;;;;1.20;1.10;;;33.80;39.30;;;;;;5035568;28;20417;-72
2023/06/03 06:53:27;;;;;;;1.10;1.00;;;32.90;40.60;;;;;;5035204;28;20422;-72
2023/06/03 06:55:55;;;;;;;0.93;0.90;;;32.50;41.50;;;;;;5034996;28;20194;-73
2023/06/03 06:58:22;;;;;;;1.63;1.53;;;32.60;42.40;;;;;;5035273;28;20433;-72
2023/06/03 07:00:49;;;;;;;1.33;1.23;;;32.30;41.00;;;;;;5035015;28;20405;-73
2023/06/03 07:03:19;;;;;;;1.43;1.33;;;31.10;47.90;;;;;;5035072;28;20762;-72
2023/06/03 07:05:52;;;;;;;0.93;0.93;;;30.90;43.50;;;;;;5035018;28;20882;-72
2023/06/03 07:08:18;;;;;;;1.00;0.90;;;30.20;44.30;;;;;;5035052;28;20886;-72
2023/06/03 07:10:44;;;;;;;1.77;1.50;;;29.40;46.50;;;;;;5035111;28;20401;-72
2023/06/03 07:13:10;;;;;;;2.10;1.60;;;28.20;47.40;;;;;;5034940;28;20810;-72
2023/06/03 07:15:39;;;;;;;0.80;0.80;;;28.40;47.20;;;;;;5034523;28;20198;-71
2023/06/03 07:18:06;;;;;;;2.00;1.50;;;28.50;47.70;;;;;;5034782;28;20167;-74
2023/06/03 07:20:38;;;;;;;1.53;1.43;;;28.50;47.20;;;;;;5034795;28;20410;-71
2023/06/03 07:23:10;;;;;;;5.53;1.47;;;28.30;47.70;;;;;;5034625;28;20397;-72
2023/06/03 07:25:50;;;;;;;1.93;1.17;;;28.00;48.30;;;;;;5034544;28;20801;-71
2023/06/03 07:28:34;;;;;;;2.27;2.07;;;27.30;48.50;;;;;;5034715;28;20402;-71
2023/06/03 07:31:04;;;;;;;2.70;1.27;;;26.90;49.50;;;;;;5034684;28;20923;-71
2023/06/03 07:33:36;;;;;;;1.00;0.90;;;26.70;50.90;;;;;;5034548;28;20417;-72
2023/06/03 07:36:03;;;;;;;1.37;1.00;;;26.80;49.40;;;;;;5034364;28;20870;-71
2023/06/03 07:38:37;;;;;;;2.83;1.67;;;27.00;50.60;;;;;;5034368;28;20413;-72
2023/06/03 07:41:03;;;;;;;1.43;1.33;;;27.60;48.60;;;;;;5034317;28;20390;-70
2023/06/03 07:43:29;;;;;;;1.67;1.30;;;28.00;49.50;;;;;;5033822;28;20430;-72
2023/06/03 07:45:55;;;;;;;1.43;0.70;;;29.20;48.10;;;;;;5032752;28;20922;-71
2023/06/03 07:48:20;;;;;;;1.47;1.37;;;30.60;46.50;;;;;;5032961;28;20697;-71
2023/06/03 07:50:49;;;;;;;1.10;1.10;;;32.10;42.50;;;;;;5032556;28;20293;-71
2023/06/03 07:53:22;;;;;;;1.50;1.40;;;33.30;41.50;;;;;;5032837;28;20179;-71
2023/06/03 07:55:50;;;;;;;1.33;1.00;;;34.50;40.50;;;;;;5033960;28;20542;-72
2023/06/03 07:58:18;;;;;;;3.50;0.90;;;35.10;37.60;;;;;;5032363;28;20443;-72
2023/06/03 08:00:45;;;;;;;1.30;0.90;;;35.80;37.20;;;;;;5032375;28;20910;-72
2023/06/03 08:03:18;;;;;;;2.87;1.60;;;36.70;37.80;;;;;;5033847;28;20758;-72
2023/06/03 08:05:47;;;;;;;2.00;1.40;;;37.90;36.40;;;;;;5031349;28;20925;-72
2023/06/03 08:08:14;;;;;;;2.27;1.50;;;37.90;32.70;;;;;;5033185;28;20430;-72
2023/06/03 08:10:42;;;;;;;1.50;1.23;;;37.80;33.30;;;;;;5031986;28;20408;-73
2023/06/03 08:13:08;;;;;;;1.23;0.80;;;38.30;33.20;;;;;;5030569;28;20493;-72
2023/06/03 08:15:35;;;;;;;1.50;1.40;;;38.70;31.40;;;;;;5032886;28;20535;-72
2023/06/03 08:18:05;;;;;;;3.40;1.07;;;38.80;32.60;;;;;;5033825;28;20171;-72
2023/06/03 08:20:33;;;;;;;0.93;0.83;;;39.10;30.70;;;;;;5033891;28;20826;-72
2023/06/03 08:22:59;;;;;;;1.27;1.10;;;39.00;31.10;;;;;;5033732;28;20837;-72
2023/06/03 08:25:25;;;;;;;1.37;1.27;;;39.40;31.40;;;;;;5033368;28;20903;-72
2023/06/03 08:27:53;;;;;;;1.90;1.80;;;38.90;28.80;;;;;;5033696;28;20508;-72
2023/06/03 08:30:21;;;;;;;1.73;1.30;;;37.80;30.50;;;;;;5033462;28;20429;-75
2023/06/03 08:32:49;;;;;;;1.60;1.40;;;37.40;30.00;;;;;;5033450;28;20956;-73
2023/06/03 08:35:20;;;;;;;1.50;1.40;;;35.70;31.20;;;;;;5033383;28;20594;-72
2023/06/03 08:37:46;;;;;;;1.50;1.40;;;34.30;32.50;;;;;;5033469;28;20428;-73
2023/06/03 08:40:13;;;;;;;1.20;0.97;;;33.30;33.10;;;;;;5033522;28;20907;-72
2023/06/03 08:42:42;;;;;;;4.43;1.60;;;32.20;35.30;;;;;;5032224;28;20877;-71
2023/06/03 08:45:19;;;;;;;1.20;1.10;;;31.90;35.00;;;;;;5033336;28;20924;-72
2023/06/03 08:48:06;;;;;;;1.53;1.20;;;31.20;37.10;;;;;;5033298;28;20474;-72
2023/06/03 08:50:33;;;;;;;1.50;1.40;;;31.00;36.80;;;;;;5033341;28;20456;-72
2023/06/03 08:53:04;;;;;;;2.00;1.77;;;31.70;38.70;;;;;;5033249;28;20405;-75
2023/06/03 08:55:30;;;;;;;1.37;1.10;;;33.00;36.50;;;;;;5033011;28;20949;-72
2023/06/03 08:57:59;;;;;;;1.00;1.00;;;34.10;35.20;;;;;;5033205;28;20417;-72
2023/06/03 09:00:26;;;;;;;1.00;0.90;;;35.40;34.20;;;;;;5033228;28;20772;-71
2023/06/03 09:02:52;;;;;;;2.07;1.60;;;36.20;33.40;;;;;;5033407;28;20771;-72
2023/06/03 09:05:20;;;;;;;1.90;1.20;;;36.70;32.40;;;;;;5033064;28;21040;-72
2023/06/03 09:07:47;;;;;;;1.50;1.40;;;37.10;33.10;;;;;;5033157;28;20467;-73
2023/06/03 09:10:17;;;;;;;1.10;0.90;;;37.70;31.80;;;;;;5033289;28;20406;-72
2023/06/03 09:12:44;;;;;;;1.63;1.50;;;37.80;30.70;;;;;;5033114;28;20416;-72
2023/06/03 09:15:14;;;;;;;1.23;1.13;;;37.70;31.80;;;;;;5033048;28;20544;-73
2023/06/03 09:17:43;;;;;;;1.67;1.27;;;36.50;30.40;;;;;;5033082;28;20747;-72
2023/06/03 09:20:10;;;;;;;2.37;1.30;;;35.10;33.40;;;;;;5033666;28;20471;-72
2023/06/03 09:22:37;;;;;;;1.17;1.10;;;32.80;33.80;;;;;;5033848;28;20863;-72
2023/06/03 09:25:04;;;;;;;1.10;1.10;;;30.60;35.20;;;;;;5037006;28;20529;-72
2023/06/03 09:27:30;;;;;;;2.03;1.30;;;29.10;38.70;;;;;;5036739;28;20405;-70
2023/06/03 09:29:56;;;;;;;1.23;1.07;;;28.40;41.30;;;;;;5036991;28;20412;-71
2023/06/03 09:32:22;;;;;;;1.33;1.23;;;28.30;41.40;;;;;;5036967;28;20448;-72
2023/06/03 09:34:49;;;;;;;3.30;1.70;;;28.00;42.30;;;;;;5036615;28;20900;-73
2023/06/03 09:37:15;;;;;;;1.47;1.37;;;28.00;42.10;;;;;;5034878;28;20485;-73
2023/06/03 09:39:41;;;;;;;1.70;1.57;;;28.50;42.60;;;;;;5036845;28;20951;-74
2023/06/03 09:42:08;;;;;;;1.27;1.20;;;29.60;41.20;;;;;;5034824;28;20409;-74
2023/06/03 09:44:55;;;;;;;4.27;2.03;;;30.40;39.10;;;;;;5034364;28;20429;-74
2023/06/03 09:47:21;;;;;;;2.70;2.00;;;31.00;37.70;;;;;;5035866;28;20414;-73
2023/06/03 09:50:12;;;;;;;1.63;1.10;;;30.80;39.30;;;;;;5036300;28;20452;-73
2023/06/03 09:52:38;;;;;;;1.20;1.10;;;31.40;37.40;;;;;;5036621;28;20292;-74
2023/06/03 09:55:08;;;;;;;1.53;1.43;;;32.30;37.60;;;;;;5036772;28;20457;-74
2023/06/03 09:57:34;;;;;;;1.47;1.20;;;32.60;36.90;;;;;;5036389;28;20174;-73
2023/06/03 10:00:12;;;;;;;1.10;1.00;;;32.20;35.60;;;;;;5036334;28;20409;-73
2023/06/03 10:02:42;;;;;;;1.13;1.03;;;30.90;37.20;;;;;;5036218;28;20262;-74
2023/06/03 10:05:27;;;;;;;2.00;1.57;;;30.40;38.70;;;;;;5036119;28;20444;-74
2023/06/03 10:07:53;;;;;;;1.93;1.83;;;30.70;38.40;;;;;;5033508;28;20509;-74
2023/06/03 10:10:18;;;;;;;1.63;1.53;;;30.70;36.90;;;;;;5035815;28;20504;-73
2023/06/03 10:12:45;;;;;;;1.23;1.13;;;31.10;38.20;;;;;;5033880;28;20181;-73
2023/06/03 10:15:11;;;;;;;1.73;1.20;;;31.40;36.50;;;;;;5032821;28;20282;-74
2023/06/03 10:17:45;;;;;;;1.30;1.20;;;31.50;36.80;;;;;;5034041;28;20937;-74
2023/06/03 10:20:11;;;;;;;1.30;1.20;;;31.50;35.80;;;;;;5035684;28;20171;-74
2023/06/03 10:22:42;;;;;;;1.67;1.40;;;30.60;37.00;;;;;;5035923;28;20429;-73
2023/06/03 10:25:09;;;;;;;1.57;1.33;;;30.60;38.80;;;;;;5036276;28;20433;-74
2023/06/03 10:27:36;;;;;;;1.73;1.63;;;31.20;37.50;;;;;;5035658;28;20401;-74
2023/06/03 10:30:02;;;;;;;1.10;1.00;;;31.40;37.40;;;;;;5035802;28;20413;-74
2023/06/03 10:32:29;;;;;;;1.17;1.03;;;31.40;35.70;;;;;;5035848;28;20428;-74
2023/06/03 10:34:59;;;;;;;0.73;0.73;;;31.10;36.20;;;;;;5035087;28;20449;-73
2023/06/03 10:37:25;;;;;;;2.03;1.50;;;30.90;36.60;;;;;;5035249;28;20488;-74
2023/06/03 10:39:52;;;;;;;1.57;1.47;;;31.10;38.10;;;;;;5035796;28;20402;-74
2023/06/03 10:42:19;;;;;;;1.30;1.10;;;31.60;36.90;;;;;;5035472;28;20417;-73
2023/06/03 10:44:45;;;;;;;1.60;1.50;;;31.40;35.60;;;;;;5035510;28;20496;-74
2023/06/03 10:47:25;;;;;;;1.70;1.40;;;30.20;36.30;;;;;;5035237;28;20909;-74
2023/06/03 10:49:55;;;;;;;1.07;1.03;;;29.00;38.20;;;;;;5035307;28;20179;-73
2023/06/03 10:52:50;;;;;;;1.97;0.80;;;28.10;38.80;;;;;;5035355;28;20536;-73
2023/06/03 10:55:25;;;;;;;1.30;1.20;;;26.70;41.20;;;;;;5035257;28;20461;-73
2023/06/03 10:58:00;;;;;;;1.23;1.17;;;26.20;41.50;;;;;;5035135;28;20401;-73
2023/06/03 11:00:53;;;;;;;1.87;1.20;;;26.60;41.80;;;;;;5035145;28;20413;-73
2023/06/03 11:03:21;;;;;;;1.90;1.80;;;27.40;41.90;;;;;;5035078;28;20425;-73
2023/06/03 11:05:48;;;;;;;1.23;1.13;;;27.50;41.00;;;;;;5035065;28;20406;-73
2023/06/03 11:08:34;;;;;;;1.47;1.27;;;26.70;41.50;;;;;;5035132;28;20398;-73
2023/06/03 11:10:59;;;;;;;1.33;1.23;;;26.40;45.80;;;;;;5035203;28;20413;-74
2023/06/03 11:13:40;;;;;;;1.50;1.40;;;26.30;43.90;;;;;;5034818;28;20552;-73
2023/06/03 11:16:06;;;;;;;1.97;1.87;;;26.20;43.50;;;;;;5034592;28;20194;-73
2023/06/03 11:18:32;;;;;;;1.90;1.70;;;26.10;43.60;;;;;;5035002;28;20467;-74
2023/06/03 11:20:58;;;;;;;1.10;1.00;;;26.00;44.30;;;;;;5035055;28;20166;-73
2023/06/03 11:23:43;;;;;;;3.13;2.43;;;26.00;53.10;;;;;;5034638;28;20163;-73
2023/06/03 11:26:32;;;;;;;2.80;1.70;;;26.00;46.70;;;;;;5034700;28;20566;-73
2023/06/03 11:28:58;;;;;;;3.07;1.70;;;25.60;46.10;;;;;;5034679;28;20492;-73
2023/06/03 11:31:25;;;;;;;1.33;1.23;;;25.40;47.20;;;;;;5034435;28;20408;-73
2023/06/03 11:34:25;;;;;;;2.37;1.40;;;25.20;46.10;;;;;;5034551;28;20429;-73
2023/06/03 11:36:55;;;;;;;2.20;1.60;;;25.10;48.70;;;;;;5034377;28;20442;-73
2023/06/03 11:39:21;;;;;;;1.20;1.10;;;24.90;48.90;;;;;;5034526;28;20455;-73
2023/06/03 11:42:02;;;;;;;1.50;1.40;;;24.80;47.30;;;;;;5034486;28;20376;-73
2023/06/03 11:44:28;;;;;;;2.30;1.97;;;24.40;47.70;;;;;;5034364;28;20414;-73
2023/06/03 11:46:54;;;;;;;1.83;1.40;;;24.30;47.30;;;;;;5033540;28;20375;-73
2023/06/03 11:49:23;;;;;;;1.17;1.07;;;24.10;47.20;;;;;;5034153;28;20392;-73
2023/06/03 11:51:53;;;;;;;2.37;2.17;;;24.10;46.40;;;;;;5034318;28;20338;-73
2023/06/03 11:54:22;;;;;;;1.80;1.40;;;24.10;47.30;;;;;;5033967;28;20422;-73
2023/06/03 11:56:50;;;;;;;1.37;1.27;;;24.00;47.70;;;;;;5033924;28;20777;-73
2023/06/03 11:59:20;;;;;;;1.80;1.37;;;24.00;47.00;;;;;;5034144;28;20764;-73
2023/06/03 12:01:59;;;;;;;0.90;0.90;;;24.10;47.20;;;;;;5033196;28;20406;-73
2023/06/03 12:04:25;;;;;;;1.20;1.10;;;24.10;47.00;;;;;;5033615;28;20933;-71
2023/06/03 12:06:51;;;;;;;1.27;1.20;;;24.10;47.60;;;;;;5033687;28;20413;-73
2023/06/03 12:09:20;;;;;;;2.40;2.20;;;24.20;46.60;;;;;;5033819;28;20414;-73
2023/06/03 12:11:45;;;;;;;1.43;1.33;;;24.30;48.70;;;;;;5033835;28;20376;-73
2023/06/03 12:14:26;;;;;;;1.33;1.23;;;24.40;49.30;;;;;;5033636;28;20408;-73
2023/06/03 12:16:53;;;;;;;1.00;0.90;;;24.50;49.50;;;;;;5033602;28;20244;-73
2023/06/03 12:19:19;;;;;;;1.53;1.43;;;24.80;47.60;;;;;;5033873;28;20413;-73
2023/06/03 12:21:57;;;;;;;1.37;1.27;;;25.20;46.90;;;;;;5033794;28;20451;-73
2023/06/03 12:24:28;;;;;;;1.30;1.20;;;25.60;45.90;;;;;;5033550;28;20423;-73
2023/06/03 12:26:54;;;;;;;1.57;1.47;;;26.10;45.30;;;;;;5033552;28;20416;-73
2023/06/03 12:29:20;;;;;;;1.50;1.10;;;26.40;44.60;;;;;;5033611;28;20987;-73
2023/06/03 12:32:02;;;;;;;1.33;1.07;;;26.60;43.00;;;;;;5033737;28;20412;-73
2023/06/03 12:34:33;;;;;;;1.60;1.30;;;26.60;42.70;;;;;;5033358;28;20461;-73
2023/06/03 12:37:00;;;;;;;1.47;1.37;;;26.50;43.30;;;;;;5033367;28;20375;-73
2023/06/03 12:39:48;;;;;;;1.50;0.90;;;26.30;43.40;;;;;;5033455;28;20766;-73
2023/06/03 12:42:16;;;;;;;1.27;1.17;;;26.20;43.70;;;;;;5033549;28;20433;-73
2023/06/03 12:44:50;;;;;;;2.17;1.70;;;26.00;46.00;;;;;;5033328;28;20945;-73
2023/06/03 12:47:17;;;;;;;2.27;1.90;;;25.80;47.10;;;;;;5033335;28;20411;-73
2023/06/03 12:49:44;;;;;;;3.90;1.47;;;25.60;48.10;;;;;;5033271;28;20842;-73
2023/06/03 12:52:16;;;;;;;1.10;1.00;;;25.40;47.30;;;;;;5033033;28;20387;-73
2023/06/03 12:54:44;;;;;;;3.13;2.27;;;25.20;49.30;;;;;;5032502;28;20439;-73